Time;durP1;ratioP1;P1;durP2;ratioP2;P2;SDS_P1;SDS_P2;PMS_P1;PMS_P2;Temp;Humidity;BMP_temperature;BMP_pressure;BME280_temperature;BME280_humidity;BME280_pressure;Samples;Min_cycle;Max_cycle;Signal;HPM_P1;HPM_P2
2022/03/20 00:00:00;;;;;;;;;2.00;2.00;;;;;10.16;32.71;102374.28;5097814;27;45391;-46
2022/03/20 00:02:25;;;;;;;;;5.00;3.00;;;;;10.16;32.83;102378.75;5098251;27;45513;-45
2022/03/20 00:04:51;;;;;;;;;4.33;2.00;;;;;10.14;32.34;102367.34;5098202;27;45358;-51
2022/03/20 00:07:17;;;;;;;;;4.00;2.33;;;;;10.13;32.91;102365.66;5097608;27;46927;-54
2022/03/20 00:09:42;;;;;;;;;4.33;2.00;;;;;10.09;32.54;102365.00;5097350;27;45435;-50
2022/03/20 00:12:08;;;;;;;;;3.00;1.33;;;;;10.06;32.44;102361.72;5097657;27;45399;-53
2022/03/20 00:14:33;;;;;;;;;5.00;5.00;;;;;10.05;32.30;102371.50;5098044;27;45498;-53
2022/03/20 00:16:59;;;;;;;;;7.00;4.33;;;;;10.05;32.83;102365.31;5097356;27;45437;-53
2022/03/20 00:19:26;;;;;;;;;7.00;5.00;;;;;10.00;32.46;102365.66;5097496;27;45488;-50
2022/03/20 00:21:51;;;;;;;;;2.67;2.00;;;;;9.98;32.39;102364.88;5097741;27;45367;-45
2022/03/20 00:24:18;;;;;;;;;5.00;1.00;;;;;9.88;32.86;102342.53;5096494;27;45386;-52
2022/03/20 00:26:43;;;;;;;;;3.67;3.00;;;;;9.93;32.18;102361.69;5097236;27;46259;-52
2022/03/20 00:29:09;;;;;;;;;2.33;2.33;;;;;9.90;32.15;102356.56;5097795;27;45223;-52
2022/03/20 00:31:35;;;;;;;;;3.00;3.00;;;;;9.89;32.28;102365.50;5097873;27;45382;-51
2022/03/20 00:34:00;;;;;;;;;2.00;2.00;;;;;9.84;32.16;102363.16;5097761;27;45403;-52
2022/03/20 00:36:26;;;;;;;;;3.00;3.00;;;;;9.80;32.39;102360.81;5097244;27;46426;-52
2022/03/20 00:38:51;;;;;;;;;2.67;2.00;;;;;9.77;32.61;102361.00;5097136;27;45445;-49
2022/03/20 00:41:16;;;;;;;;;1.00;1.00;;;;;9.72;32.28;102356.84;5097145;27;45445;-47
2022/03/20 00:43:42;;;;;;;;;2.33;2.33;;;;;9.66;32.41;102351.94;5097471;27;45390;-51
2022/03/20 00:46:09;;;;;;;;;3.00;2.00;;;;;9.62;33.10;102345.13;5112498;27;46154;-50
2022/03/20 00:48:34;;;;;;;;;7.00;2.00;;;;;9.65;32.64;102352.91;5096903;27;45380;-51
2022/03/20 00:51:03;;;;;;;;;2.00;1.67;;;;;9.65;33.01;102358.22;5096983;27;45377;-46
2022/03/20 00:53:30;;;;;;;;;7.33;3.00;;;;;9.64;32.60;102352.97;5097283;27;45519;-46
2022/03/20 00:55:55;;;;;;;;;2.67;2.00;;;;;9.62;32.70;102342.47;5096603;27;46833;-49
2022/03/20 00:58:21;;;;;;;;;1.00;1.00;;;;;9.62;33.03;102344.28;5096838;27;45527;-50
2022/03/20 01:00:46;;;;;;;;;5.00;5.00;;;;;9.55;33.48;102338.50;5096850;27;45816;-54
2022/03/20 01:03:12;;;;;;;;;5.00;2.00;;;;;9.43;33.11;102326.03;5097317;27;45462;-51
2022/03/20 01:05:37;;;;;;;;;1.67;1.67;;;;;9.53;32.89;102342.22;5096748;27;46087;-50
2022/03/20 01:08:02;;;;;;;;;1.67;1.00;;;;;9.46;32.74;102345.28;5096639;27;45352;-51
2022/03/20 01:10:28;;;;;;;;;3.00;1.75;;;;;9.46;33.38;102344.44;5096961;27;45519;-51
2022/03/20 01:12:55;;;;;;;;;2.00;2.00;;;;;9.37;33.46;102327.28;5097002;27;45434;-49
2022/03/20 01:15:21;;;;;;;;;2.25;1.50;;;;;9.41;33.38;102333.25;5096640;27;46380;-53
2022/03/20 01:17:47;;;;;;;;;2.25;2.00;;;;;9.37;33.29;102334.41;5096310;27;45394;-52
2022/03/20 01:20:13;;;;;;;;;2.00;2.00;;;;;9.37;33.34;102331.75;5096620;27;45215;-54
2022/03/20 01:22:40;;;;;;;;;4.50;3.00;;;;;9.37;33.78;102337.06;5096977;27;45395;-51
2022/03/20 01:25:07;;;;;;;;;2.75;1.75;;;;;9.34;34.08;102329.28;5095095;27;46039;-51
2022/03/20 01:27:33;;;;;;;;;4.50;2.50;;;;;9.32;33.91;102323.25;5096317;27;45329;-50
2022/03/20 01:29:58;;;;;;;;;3.33;3.33;;;;;9.30;33.82;102325.97;5096318;27;45477;-50
2022/03/20 01:32:26;;;;;;;;;2.00;2.00;;;;;9.28;34.20;102325.25;5096568;27;45533;-52
2022/03/20 01:34:52;;;;;;;;;1.00;1.00;;;;;9.24;34.36;102332.53;5096354;27;47011;-50
2022/03/20 01:37:18;;;;;;;;;2.00;2.00;;;;;9.17;34.04;102317.09;5096451;27;45637;-52
2022/03/20 01:39:44;;;;;;;;;1.75;1.75;;;;;9.21;33.69;102326.56;5096284;27;45348;-49
2022/03/20 01:42:09;;;;;;;;;3.75;3.25;;;;;9.20;34.12;102328.38;5095243;27;45675;-51
2022/03/20 01:44:36;;;;;;;;;2.00;2.00;;;;;9.10;34.70;102313.13;5096091;27;46117;-52
2022/03/20 01:47:03;;;;;;;;;2.00;2.00;;;;;9.16;34.05;102315.41;5096189;27;45351;-53
2022/03/20 01:49:28;;;;;;;;;9.00;2.00;;;;;9.14;34.92;102317.28;5095992;27;45369;-52
2022/03/20 01:52:14;;;;;;;;;5.50;3.00;;;;;9.05;34.63;102302.81;5096345;27;45542;-49
2022/03/20 01:54:42;;;;;;;;;2.50;2.00;;;;;8.99;35.06;102287.28;5095119;27;47054;-46
2022/03/20 01:57:09;;;;;;;;;0.00;0.00;;;;;9.05;34.95;102299.31;5096112;27;45402;-51
2022/03/20 01:59:36;;;;;;;;;4.50;2.00;;;;;9.01;34.53;102298.66;5096301;27;45396;-49
2022/03/20 02:02:05;;;;;;;;;4.00;3.00;;;;;8.97;35.21;102300.66;5096160;27;45394;-52
2022/03/20 02:04:34;;;;;;;;;2.75;2.75;;;;;8.95;34.91;102302.56;5095895;27;46206;-54
2022/03/20 02:07:00;;;;;;;;;2.50;2.00;;;;;8.95;35.82;102299.06;5095978;27;45358;-52
2022/03/20 02:09:26;;;;;;;;;2.00;2.00;;;;;8.62;35.87;102247.19;5096139;27;45532;-50
2022/03/20 02:11:51;;;;;;;;;2.00;2.00;;;;;8.92;35.44;102288.63;5096545;27;45414;-50
2022/03/20 02:14:17;;;;;;;;;4.00;2.25;;;;;8.93;35.67;102292.97;5095856;27;46020;-55
2022/03/20 02:16:44;;;;;;;;;2.00;2.00;;;;;8.90;36.27;102293.19;5095690;27;45514;-52
2022/03/20 02:19:13;;;;;;;;;4.50;2.25;;;;;8.86;35.75;102289.03;5095890;27;45384;-47
2022/03/20 02:21:48;;;;;;;;;2.00;2.00;;;;;8.81;35.88;102277.88;5096075;27;45462;-50
2022/03/20 02:24:41;;;;;;;;;2.00;2.00;;;;;8.79;36.46;102285.91;5095633;27;46167;-50
2022/03/20 02:27:17;;;;;;;;;4.00;2.00;;;;;8.65;36.66;102275.31;5095878;27;45358;-53
2022/03/20 02:29:44;;;;;;;;;5.00;2.75;;;;;8.72;36.31;102274.84;5095799;27;45297;-53
2022/03/20 02:32:12;;;;;;;;;2.25;2.25;;;;;8.67;36.91;102266.31;5095748;27;45418;-52
2022/03/20 02:34:38;;;;;;;;;5.00;3.25;;;;;8.67;37.66;102268.09;5095329;27;45391;-51
2022/03/20 02:37:04;;;;;;;;;1.25;1.25;;;;;8.62;36.75;102265.75;5095558;27;45508;-50
2022/03/20 02:39:31;;;;;;;;;5.25;3.00;;;;;8.62;36.96;102276.34;5095650;27;45517;-51
2022/03/20 02:42:03;;;;;;;;;3.50;2.00;;;;;8.57;36.77;102262.53;5095981;27;45359;-53
2022/03/20 02:44:48;;;;;;;;;1.00;1.00;;;;;8.55;36.92;102260.91;5095447;27;45378;-50
2022/03/20 02:47:14;;;;;;;;;1.25;1.00;;;;;8.50;37.68;102255.91;5097464;27;45411;-48
2022/03/20 02:49:40;;;;;;;;;3.00;3.00;;;;;8.47;36.85;102262.28;5098956;27;45450;-50
2022/03/20 02:52:07;;;;;;;;;3.50;1.00;;;;;8.43;37.97;102265.22;5099264;27;45572;-53
2022/03/20 02:54:32;;;;;;;;;6.00;2.00;;;;;8.40;37.24;102266.25;5098756;27;45393;-49
2022/03/20 02:56:58;;;;;;;;;3.25;3.25;;;;;8.36;37.93;102254.09;5098960;27;45390;-52
2022/03/20 02:59:23;;;;;;;;;3.00;3.00;;;;;8.37;38.02;102258.47;5098962;27;45343;-59
2022/03/20 03:01:49;;;;;;;;;2.00;1.50;;;;;8.34;38.35;102261.28;5099293;27;45320;-50
2022/03/20 03:04:14;;;;;;;;;5.00;2.50;;;;;8.32;38.08;102254.38;5098275;27;45319;-53
2022/03/20 03:06:39;;;;;;;;;7.75;4.75;;;;;8.28;38.80;102251.06;5099019;27;45425;-52
2022/03/20 03:11:49;;;;;;;;;2.00;2.00;;;;;8.21;38.99;102250.56;5099267;27;45317;-53
2022/03/20 03:16:58;;;;;;;;;2.00;2.00;;;;;8.11;38.91;102232.69;5098971;27;45541;-52
2022/03/20 03:19:23;;;;;;;;;3.00;2.00;;;;;8.05;40.10;102231.28;5098755;27;45397;-53
2022/03/20 03:21:49;;;;;;;;;7.50;3.00;;;;;8.00;39.57;102231.53;5099177;27;45416;-51
2022/03/20 03:24:14;;;;;;;;;4.75;2.00;;;;;7.93;39.53;102224.94;5098923;27;45350;-52
2022/03/20 03:26:40;;;;;;;;;5.75;4.00;;;;;7.83;40.12;102218.47;5099115;27;45371;-52
2022/03/20 03:29:05;;;;;;;;;9.00;6.00;;;;;7.92;39.99;102238.25;5099073;27;45253;-52
2022/03/20 03:31:31;;;;;;;;;9.00;5.50;;;;;7.90;40.54;102243.66;5098761;27;45431;-53
2022/03/20 03:36:41;;;;;;;;;9.75;6.00;;;;;7.84;40.43;102232.59;5098488;27;45414;-52
2022/03/20 03:39:08;;;;;;;;;9.50;6.00;;;;;7.83;40.74;102238.81;5098501;27;45481;-52
2022/03/20 03:41:33;;;;;;;;;6.50;6.50;;;;;7.76;41.04;102227.75;5098457;27;45499;-54
2022/03/20 03:43:58;;;;;;;;;8.25;5.50;;;;;7.80;40.36;102233.72;5098009;27;45436;-53
2022/03/20 03:46:24;;;;;;;;;8.75;8.00;;;;;7.81;40.74;102243.38;5098627;27;45489;-51
2022/03/20 03:48:49;;;;;;;;;8.00;6.00;;;;;7.79;41.06;102243.44;5097971;27;45605;-48
2022/03/20 03:51:15;;;;;;;;;8.75;5.00;;;;;7.73;41.26;102236.72;5098392;27;45425;-53
2022/03/20 03:53:40;;;;;;;;;7.50;4.75;;;;;7.62;42.16;102217.09;5097922;27;45472;-51
2022/03/20 03:56:06;;;;;;;;;7.00;6.75;;;;;7.69;41.12;102231.69;5097875;27;45445;-51
2022/03/20 03:58:32;;;;;;;;;5.75;5.75;;;;;7.66;42.08;102231.88;5098412;27;45468;-51
2022/03/20 04:00:57;;;;;;;;;11.00;6.00;;;;;7.60;41.52;102232.25;5098192;27;45448;-50
2022/03/20 04:03:23;;;;;;;;;8.50;4.75;;;;;7.62;41.63;102231.19;5097732;27;46153;-48
2022/03/20 04:05:48;;;;;;;;;4.25;4.25;;;;;7.59;41.98;102242.00;5097364;27;45311;-48
2022/03/20 04:08:15;;;;;;;;;9.25;5.00;;;;;7.52;41.84;102235.34;5097892;27;45461;-44
2022/03/20 04:10:41;;;;;;;;;8.00;5.25;;;;;7.51;42.71;102238.94;5098339;27;45418;-50
2022/03/20 04:13:07;;;;;;;;;9.25;7.00;;;;;7.47;42.39;102238.25;5097998;27;46110;-49
2022/03/20 04:15:32;;;;;;;;;5.25;5.25;;;;;7.32;42.61;102222.41;5097974;27;45490;-52
2022/03/20 04:18:00;;;;;;;;;5.25;5.25;;;;;7.42;41.92;102239.50;5097359;27;45401;-46
2022/03/20 04:20:26;;;;;;;;;6.00;5.25;;;;;7.36;42.69;102232.72;5097954;27;45353;-46
2022/03/20 04:25:39;;;;;;;;;9.25;8.00;;;;;7.35;42.59;102238.97;5097599;27;45611;-52
2022/03/20 04:28:05;;;;;;;;;12.00;8.25;;;;;7.19;42.88;102217.84;5097494;27;45433;-45
2022/03/20 04:30:34;;;;;;;;;9.25;5.50;;;;;7.33;42.69;102240.00;5097547;27;45454;-52
2022/03/20 04:32:59;;;;;;;;;8.00;6.00;;;;;7.26;43.39;102228.94;5096931;27;46265;-51
2022/03/20 04:35:25;;;;;;;;;15.00;10.00;;;;;7.25;43.66;102229.88;5097153;27;45592;-52
2022/03/20 04:37:55;;;;;;;;;5.25;5.25;;;;;7.19;42.50;102223.13;5097504;27;45412;-51
2022/03/20 04:40:20;;;;;;;;;5.00;5.00;;;;;7.21;43.28;102223.06;5097517;27;45351;-52
2022/03/20 04:42:46;;;;;;;;;12.25;8.00;;;;;7.16;43.77;102233.03;5096967;27;46191;-52
2022/03/20 04:45:13;;;;;;;;;9.25;8.00;;;;;7.15;44.30;102226.88;5097227;27;45422;-52
2022/03/20 04:58:35;;;;;;;;;9.50;7.75;;;;;7.03;45.31;102216.16;5096755;27;45437;-50
2022/03/20 05:01:01;;;;;;;;;8.50;7.75;;;;;7.04;44.65;102213.44;5096879;27;45441;-52
2022/03/20 05:03:27;;;;;;;;;9.00;7.00;;;;;7.03;44.20;102216.16;5096216;27;46598;-52
2022/03/20 05:05:53;;;;;;;;;6.50;6.50;;;;;7.03;44.78;102217.00;5096619;27;45495;-50
2022/03/20 05:08:19;;;;;;;;;8.25;5.75;;;;;7.02;45.08;102225.88;5096378;27;45411;-51
2022/03/20 05:13:30;;;;;;;;;13.50;8.25;;;;;7.03;45.42;102226.75;5096439;27;45729;-49
2022/03/20 05:15:56;;;;;;;;;8.00;5.00;;;;;7.02;45.42;102225.88;5096120;27;45416;-52
2022/03/20 05:18:22;;;;;;;;;5.50;5.50;;;;;7.02;45.24;102232.97;5096611;27;45343;-51
2022/03/20 05:20:49;;;;;;;;;12.75;6.25;;;;;6.96;45.17;102220.97;5096502;27;45458;-50
2022/03/20 05:23:15;;;;;;;;;7.75;5.25;;;;;6.96;45.00;102229.75;5095991;27;47214;-53
2022/03/20 05:25:41;;;;;;;;;11.00;8.75;;;;;6.81;45.08;102204.16;5096036;27;45441;-51
2022/03/20 05:28:06;;;;;;;;;6.25;6.25;;;;;6.88;45.59;102224.03;5096339;27;45483;-47
2022/03/20 05:30:33;;;;;;;;;12.75;8.75;;;;;6.75;45.53;102212.44;5096419;27;45481;-51
2022/03/20 05:32:58;;;;;;;;;9.50;5.00;;;;;6.85;45.58;102228.63;5096032;27;45568;-49
2022/03/20 05:35:24;;;;;;;;;5.00;5.00;;;;;6.82;45.96;102228.81;5095862;27;45497;-49
2022/03/20 05:37:51;;;;;;;;;5.75;5.75;;;;;6.76;46.21;102219.44;5096201;27;45413;-50
2022/03/20 05:40:17;;;;;;;;;8.00;6.75;;;;;6.79;45.71;102215.78;5096225;27;45495;-53
2022/03/20 05:42:42;;;;;;;;;6.75;5.00;;;;;6.61;45.40;102192.03;5095777;27;45487;-49
2022/03/20 05:45:11;;;;;;;;;9.00;7.50;;;;;6.73;45.71;102219.59;5095948;27;45520;-52
2022/03/20 05:47:40;;;;;;;;;8.50;4.25;;;;;6.66;46.57;102211.16;5096053;27;45555;-50
2022/03/20 05:50:06;;;;;;;;;9.25;8.00;;;;;6.66;45.68;102212.97;5095727;27;45540;-50
2022/03/20 05:52:33;;;;;;;;;10.25;8.00;;;;;6.66;45.56;102219.09;5095635;27;47474;-49
2022/03/20 05:54:59;;;;;;;;;5.00;5.00;;;;;6.59;45.81;102203.66;5094329;27;45367;-52
2022/03/20 06:00:16;;;;;;;;;12.00;8.50;;;;;6.53;46.45;102196.94;5095934;27;45471;-47
2022/03/20 06:02:43;;;;;;;;;8.75;7.00;;;;;6.58;46.84;102210.75;5095658;27;46254;-47
2022/03/20 06:05:09;;;;;;;;;12.00;9.00;;;;;6.52;47.12;102200.47;5095425;27;45366;-50
2022/03/20 06:07:40;;;;;;;;;11.75;7.50;;;;;6.58;46.65;102218.66;5095804;27;45616;-49
2022/03/20 06:10:08;;;;;;;;;10.25;5.00;;;;;6.56;47.18;102217.88;5096002;27;45304;-51
2022/03/20 06:12:34;;;;;;;;;8.50;7.25;;;;;6.58;47.31;102218.66;5095294;27;46034;-48
2022/03/20 06:14:59;;;;;;;;;7.50;7.50;;;;;6.62;46.40;102219.34;5095658;27;45318;-53
2022/03/20 06:17:25;;;;;;;;;12.00;9.00;;;;;6.61;47.06;102215.84;5095828;27;45167;-49
2022/03/20 06:19:52;;;;;;;;;8.00;8.00;;;;;6.63;46.92;102219.25;5095652;27;45431;-49
2022/03/20 06:22:18;;;;;;;;;16.75;10.25;;;;;6.54;47.27;102203.06;5097885;27;47073;-52
2022/03/20 06:24:43;;;;;;;;;13.25;8.00;;;;;6.65;46.98;102225.31;5098799;27;45438;-52
2022/03/20 06:27:09;;;;;;;;;9.00;9.00;;;;;6.68;47.32;102226.94;5099253;27;45431;-49
2022/03/20 06:29:34;;;;;;;;;18.50;12.00;;;;;6.67;47.26;102223.44;5099186;27;45560;-45
2022/03/20 06:32:00;;;;;;;;;6.50;6.50;;;;;6.72;47.42;102225.81;5098969;27;45469;-50
2022/03/20 06:34:26;;;;;;;;;12.75;8.00;;;;;6.77;46.37;102236.16;5098916;27;45443;-50
2022/03/20 06:36:55;;;;;;;;;16.00;10.00;;;;;6.73;46.53;102228.38;5099167;27;45442;-49
2022/03/20 06:39:21;;;;;;;;;11.75;8.50;;;;;6.80;47.29;102236.00;5099110;27;45695;-46
2022/03/20 06:41:46;;;;;;;;;11.75;8.00;;;;;6.82;47.29;102242.03;5098649;27;46166;-50
2022/03/20 06:44:15;;;;;;;;;12.75;9.00;;;;;6.83;46.58;102244.59;5098844;27;45465;-48
2022/03/20 06:46:41;;;;;;;;;15.50;11.00;;;;;6.84;47.14;102242.81;5098962;27;45591;-46
2022/03/20 06:49:08;;;;;;;;;9.00;9.00;;;;;6.86;46.87;102251.50;5098990;27;45548;-51
2022/03/20 06:51:34;;;;;;;;;14.75;10.75;;;;;6.88;46.65;102252.28;5098376;27;46537;-51
2022/03/20 06:53:59;;;;;;;;;13.00;13.00;;;;;6.90;47.31;102253.88;5098345;27;45466;-49
2022/03/20 06:56:27;;;;;;;;;11.25;10.50;;;;;6.91;46.11;102254.72;5098575;27;45473;-50
2022/03/20 06:58:52;;;;;;;;;11.75;10.00;;;;;6.92;46.17;102253.81;5098685;27;45416;-49
2022/03/20 07:01:18;;;;;;;;;18.25;14.50;;;;;6.83;47.04;102247.25;5098173;27;45517;-53
2022/03/20 07:03:43;;;;;;;;;13.75;8.00;;;;;6.94;47.21;102251.94;5098304;27;45417;-49
2022/03/20 07:06:09;;;;;;;;;15.50;13.50;;;;;6.98;47.34;102262.25;5098384;27;45478;-50
2022/03/20 07:08:34;;;;;;;;;19.50;14.50;;;;;7.04;46.67;102269.00;5098466;27;45443;-53
2022/03/20 07:10:59;;;;;;;;;19.00;13.75;;;;;7.05;47.62;102272.50;5098151;27;47049;-51
2022/03/20 07:16:08;;;;;;;;;20.25;16.00;;;;;7.20;47.27;102266.31;5098280;27;45463;-49
2022/03/20 07:18:36;;;;;;;;;15.50;13.25;;;;;7.23;47.08;102266.16;5098319;27;45469;-49
2022/03/20 07:21:01;;;;;;;;;14.25;13.25;;;;;7.28;47.18;102263.25;5098145;27;47116;-47
2022/03/20 07:23:27;;;;;;;;;21.25;12.25;;;;;7.37;47.08;102265.34;5098055;27;45438;-47
2022/03/20 07:31:20;;;;;;;;;16.00;15.00;;;;;7.51;46.51;102268.06;5098021;27;45389;-50
2022/03/20 07:33:48;;;;;;;;;28.25;19.00;;;;;7.42;46.69;102243.00;5097292;27;45436;-48
2022/03/20 07:36:13;;;;;;;;;20.75;16.00;;;;;7.54;45.92;102254.63;5098252;27;45364;-48
2022/03/20 07:38:39;;;;;;;;;20.00;17.50;;;;;7.60;45.67;102261.38;5098148;27;45449;-49
2022/03/20 07:41:04;;;;;;;;;28.00;20.00;;;;;7.60;46.09;102258.72;5096406;27;48239;-51
2022/03/20 07:43:30;;;;;;;;;24.75;16.50;;;;;7.67;45.97;102266.22;5098037;27;45326;-53
2022/03/20 07:45:56;;;;;;;;;33.75;21.00;;;;;7.72;46.45;102265.97;5098756;27;45227;-51
2022/03/20 07:48:23;;;;;;;;;23.50;19.75;;;;;7.81;46.50;102272.50;5099126;27;45399;-51
2022/03/20 07:50:50;;;;;;;;;25.00;19.00;;;;;7.78;46.18;102267.38;5099354;27;45440;-52
2022/03/20 07:53:16;;;;;;;;;20.00;16.00;;;;;7.80;46.07;102269.00;5097454;27;45424;-50
2022/03/20 07:55:42;;;;;;;;;22.75;21.00;;;;;7.70;45.84;102250.13;5097648;27;45492;-44
2022/03/20 07:58:07;;;;;;;;;22.50;17.00;;;;;7.85;45.71;102276.69;5096737;27;45507;-50
2022/03/20 08:00:33;;;;;;;;;26.75;19.75;;;;;7.84;45.83;102272.34;5098142;27;45911;-54
2022/03/20 08:02:59;;;;;;;;;28.50;20.25;;;;;7.88;46.11;102276.47;5096755;27;45312;-50
2022/03/20 08:05:26;;;;;;;;;24.50;21.00;;;;;7.94;46.19;102270.81;5098242;27;45368;-51
2022/03/20 08:07:51;;;;;;;;;27.50;20.75;;;;;7.96;46.10;102266.25;5098362;27;45371;-51
2022/03/20 08:10:17;;;;;;;;;27.50;20.75;;;;;8.03;46.04;102272.06;5097935;27;45318;-50
2022/03/20 08:12:42;;;;;;;;;23.75;21.75;;;;;8.07;45.42;102262.97;5097779;27;45452;-48
2022/03/20 08:15:09;;;;;;;;;23.00;19.00;;;;;8.10;45.74;102268.94;5097987;27;45431;-45
2022/03/20 08:17:45;;;;;;;;;37.50;23.50;;;;;8.19;45.86;102263.09;5097930;27;45351;-51
2022/03/20 08:20:11;;;;;;;;;29.50;23.50;;;;;8.26;45.61;102266.22;5097629;27;46128;-49
2022/03/20 08:22:37;;;;;;;;;32.25;29.25;;;;;8.33;44.82;102264.88;5097803;27;45990;-52
2022/03/20 08:25:04;;;;;;;;;24.50;22.25;;;;;8.39;45.79;102267.19;5097719;27;45910;-52
2022/03/20 08:27:29;;;;;;;;;24.25;23.00;;;;;8.50;44.70;102263.88;5097910;27;45353;-52
2022/03/20 08:29:57;;;;;;;;;39.50;30.75;;;;;8.59;44.94;102268.59;5097345;27;46304;-53
2022/03/20 08:32:23;;;;;;;;;32.25;28.25;;;;;8.73;45.17;102270.38;5097614;27;45303;-51
2022/03/20 08:34:49;;;;;;;;;25.00;21.00;;;;;8.90;44.17;102271.97;5097654;27;45788;-52
2022/03/20 08:37:15;;;;;;;;;35.25;27.00;;;;;9.56;44.29;102268.47;5097520;27;45341;-51
2022/03/20 08:39:40;;;;;;;;;24.25;22.25;;;;;11.72;41.20;102258.34;5097200;27;45341;-50
2022/03/20 08:42:06;;;;;;;;;33.50;26.25;;;;;13.56;37.86;102247.13;5097383;27;45433;-51
2022/03/20 08:44:32;;;;;;;;;26.50;23.75;;;;;15.08;35.52;102250.78;5096754;27;45344;-52
2022/03/20 08:46:57;;;;;;;;;28.25;24.00;;;;;16.25;33.58;102262.25;5097665;27;45239;-46
2022/03/20 08:49:23;;;;;;;;;24.33;18.33;;;;;17.36;30.57;102255.84;5097140;27;45580;-51
2022/03/20 08:51:48;;;;;;;;;32.33;25.67;;;;;18.51;30.11;102251.25;5097313;27;45317;-45
2022/03/20 08:54:14;;;;;;;;;29.00;24.67;;;;;19.54;27.43;102266.13;5097395;27;45252;-48
2022/03/20 08:56:39;;;;;;;;;26.67;21.00;;;;;20.21;27.17;102265.91;5097623;27;45328;-45
2022/03/20 08:59:08;;;;;;;;;28.33;23.00;;;;;20.91;28.35;102255.16;5096884;27;46279;-51
2022/03/20 09:01:34;;;;;;;;;24.00;22.00;;;;;21.56;24.62;102263.88;5097156;27;45425;-51
2022/03/20 09:04:00;;;;;;;;;29.00;23.00;;;;;22.08;23.88;102263.00;5097261;27;45256;-48
2022/03/20 09:06:25;;;;;;;;;25.67;22.00;;;;;22.81;23.55;102255.91;5097260;27;45587;-49
2022/03/20 09:08:51;;;;;;;;;28.00;23.00;;;;;23.07;22.82;102263.53;5096960;27;46861;-49
2022/03/20 09:11:18;;;;;;;;;28.00;22.33;;;;;23.60;24.16;102261.31;5096870;27;45396;-50
2022/03/20 09:13:43;;;;;;;;;25.33;21.00;;;;;24.36;22.04;102265.00;5097326;27;45387;-53
2022/03/20 09:18:59;;;;;;;;;25.67;23.33;;;;;25.45;21.14;102261.41;5097168;27;46233;-52
2022/03/20 09:21:28;;;;;;;;;26.33;23.00;;;;;25.70;19.94;102261.59;5096872;27;45509;-50
2022/03/20 09:23:54;;;;;;;;;23.00;22.33;;;;;26.17;20.89;102269.75;5097158;27;45354;-49
2022/03/20 09:26:19;;;;;;;;;26.00;22.50;;;;;26.40;21.62;102259.19;5097178;27;45302;-49
2022/03/20 09:28:46;;;;;;;;;29.00;26.67;;;;;26.65;18.96;102269.44;5096788;27;45501;-49
2022/03/20 09:31:13;;;;;;;;;29.25;23.75;;;;;26.77;20.52;102267.69;5096791;27;45740;-51
2022/03/20 09:33:38;;;;;;;;;28.25;23.25;;;;;26.96;20.13;102260.44;5097074;27;45283;-50
2022/03/20 09:36:04;;;;;;;;;27.50;22.00;;;;;26.67;19.19;102270.03;5096633;27;45573;-48
2022/03/20 09:38:30;;;;;;;;;23.75;22.00;;;;;26.55;18.87;102265.28;5096387;27;45371;-51
2022/03/20 09:40:57;;;;;;;;;29.75;26.25;;;;;26.32;19.25;102259.44;5096593;27;45722;-50
2022/03/20 09:43:22;;;;;;;;;36.50;25.75;;;;;25.98;19.72;102255.94;5096683;27;45382;-48
2022/03/20 09:45:48;;;;;;;;;29.75;26.00;;;;;25.78;20.17;102250.53;5096851;27;45503;-52
2022/03/20 09:48:15;;;;;;;;;25.75;22.00;;;;;25.55;19.07;102237.31;5096439;27;46880;-51
2022/03/20 09:50:43;;;;;;;;;23.00;21.75;;;;;25.31;20.89;102238.75;5096529;27;45419;-52
2022/03/20 09:53:09;;;;;;;;;26.25;25.25;;;;;25.04;21.64;102235.13;5096540;27;45351;-50
2022/03/20 09:55:35;;;;;;;;;29.50;26.75;;;;;25.00;19.92;102239.31;5097999;27;45431;-51
2022/03/20 09:58:00;;;;;;;;;30.75;25.75;;;;;25.03;21.14;102241.63;5100062;27;46986;-51
2022/03/20 10:00:26;;;;;;;;;26.25;24.25;;;;;25.21;20.11;102243.78;5100074;27;45404;-52
2022/03/20 10:02:52;;;;;;;;;23.50;22.25;;;;;25.48;20.06;102236.47;5100334;27;45465;-52
2022/03/20 10:05:23;;;;;;;;;26.25;26.25;;;;;25.83;21.92;102239.84;5100278;27;45449;-53
2022/03/20 10:07:49;;;;;;;;;24.50;21.50;;;;;26.08;18.84;102239.13;5099735;27;46042;-51
2022/03/20 10:10:23;;;;;;;;;22.75;19.00;;;;;26.33;20.37;102244.72;5100149;27;45810;-53
2022/03/20 10:12:51;;;;;;;;;28.00;24.50;;;;;26.53;20.04;102236.50;5100463;27;45437;-51
2022/03/20 10:15:33;;;;;;;;;23.25;21.75;;;;;27.02;20.97;102241.28;5100390;27;45398;-52
2022/03/20 10:18:14;;;;;;;;;27.50;24.25;;;;;27.93;19.27;102247.31;5099816;27;45886;-47
2022/03/20 10:20:52;;;;;;;;;29.80;26.80;;;;;30.40;15.81;102252.50;5099289;27;45387;-52
2022/03/20 10:23:29;;;;;;;;;29.60;23.60;;;;;32.82;14.09;102259.69;5099535;27;45668;-51
2022/03/20 10:25:56;;;;;;;;;30.75;24.75;;;;;34.55;13.23;102251.84;5099815;27;45418;-51
2022/03/20 10:28:21;;;;;;;;;25.40;21.40;;;;;35.61;12.33;102246.72;5099323;27;47035;-52
2022/03/20 10:31:00;;;;;;;;;32.50;25.00;;;;;36.86;12.46;102251.25;5099476;27;45510;-50
2022/03/20 10:33:25;;;;;;;;;23.60;19.20;;;;;37.73;10.93;102246.94;5099823;27;45431;-53
2022/03/20 10:36:13;;;;;;;;;22.00;20.00;;;;;38.47;10.56;102228.81;5099839;27;45373;-50
2022/03/20 10:38:39;;;;;;;;;30.00;22.80;;;;;39.09;9.78;102231.50;5092043;27;47090;-50
2022/03/20 10:41:34;;;;;;;;;24.40;18.60;;;;;39.83;9.02;102231.59;5099196;27;45442;-51
2022/03/20 10:44:00;;;;;;;;;17.00;17.00;;;;;40.06;11.58;102238.06;5098070;27;45460;-49
2022/03/20 10:46:31;;;;;;;;;20.00;17.20;;;;;40.50;8.84;102231.03;5099916;27;45308;-52
2022/03/20 10:48:58;;;;;;;;;21.00;16.40;;;;;41.32;8.32;102224.28;5098978;27;46107;-53
2022/03/20 10:51:40;;;;;;;;;18.40;13.00;;;;;41.59;9.73;102231.66;5097904;27;45325;-52
2022/03/20 10:54:11;;;;;;;;;17.60;15.80;;;;;41.33;7.99;102229.53;5099353;27;45332;-53
2022/03/20 10:56:51;;;;;;;;;14.60;10.60;;;;;42.11;8.41;102224.28;5099686;27;45504;-49
2022/03/20 10:59:16;;;;;;;;;19.60;16.20;;;;;42.40;6.75;102225.69;5099013;27;46089;-54
2022/03/20 11:01:45;;;;;;;;;14.00;12.00;;;;;42.47;8.29;102226.00;5098914;27;45395;-51
2022/03/20 11:04:13;;;;;;;;;18.00;14.60;;;;;42.46;8.60;102207.56;5099182;27;45729;-50
2022/03/20 11:06:43;;;;;;;;;17.40;17.40;;;;;42.43;7.29;102213.00;5098717;27;45409;-54
2022/03/20 11:09:09;;;;;;;;;17.00;15.40;;;;;42.51;6.57;102204.59;5098855;27;46065;-51
2022/03/20 11:11:39;;;;;;;;;17.00;15.25;;;;;42.54;9.19;102212.34;5099016;27;45405;-54
2022/03/20 11:14:05;;;;;;;;;18.20;15.60;;;;;42.46;7.48;102209.56;5098896;27;45400;-50
2022/03/20 11:16:38;;;;;;;;;14.40;12.60;;;;;42.30;5.82;102209.22;5099211;27;45266;-50
2022/03/20 11:19:08;;;;;;;;;16.20;15.40;;;;;42.55;5.98;102211.19;5098684;27;46327;-51
2022/03/20 11:21:36;;;;;;;;;15.40;14.00;;;;;42.68;8.68;102206.59;5098802;27;45521;-51
2022/03/20 11:24:03;;;;;;;;;15.60;13.80;;;;;42.78;6.25;102209.06;5098805;27;45488;-53
2022/03/20 11:26:29;;;;;;;;;12.80;12.80;;;;;43.22;6.53;102207.03;5099054;27;45372;-48
2022/03/20 11:28:59;;;;;;;;;16.00;14.00;;;;;43.26;7.23;102201.56;5098757;27;46707;-54
2022/03/20 11:31:26;;;;;;;;;16.20;14.00;;;;;43.28;7.95;102213.25;5098784;27;45323;-54
2022/03/20 11:33:55;;;;;;;;;17.40;15.60;;;;;43.16;8.01;102205.56;5098804;27;45456;-55
2022/03/20 11:36:20;;;;;;;;;16.60;14.00;;;;;43.27;7.10;102209.63;5098946;27;45442;-55
2022/03/20 11:39:10;;;;;;;;;16.00;14.50;;;;;43.32;7.10;102206.69;5098326;27;45456;-55
2022/03/20 11:41:35;;;;;;;;;17.20;15.00;;;;;43.33;6.72;102201.88;5098522;27;45345;-53
2022/03/20 11:44:19;;;;;;;;;14.75;14.00;;;;;42.79;6.10;102207.91;5098653;27;45353;-54
2022/03/20 11:46:45;;;;;;;;;19.20;13.80;;;;;42.66;6.03;102205.31;5098751;27;45461;-54
2022/03/20 11:49:13;;;;;;;;;17.00;15.50;;;;;42.07;7.46;102209.31;5098150;27;45900;-55
2022/03/20 11:51:52;;;;;;;;;14.60;14.00;;;;;41.95;8.82;102213.91;5098636;27;45495;-53
2022/03/20 11:54:18;;;;;;;;;14.60;12.80;;;;;41.86;7.82;102211.91;5098270;27;45484;-54
2022/03/20 11:56:43;;;;;;;;;17.00;14.50;;;;;41.55;7.39;102211.94;5098762;27;45445;-49
2022/03/20 11:59:47;;;;;;;;;15.50;14.75;;;;;41.36;7.08;102208.53;5098232;27;46058;-48
2022/03/20 12:02:17;;;;;;;;;15.40;15.40;;;;;41.22;7.49;102171.50;5055219;28;45457;-51